sensor_id;sensor_type;location;lat;lon;timestamp;P1;durP1;ratioP1;P2;durP2;ratioP2
1725;SDS011;41776;48.260;8.928;2023-03-23T00:01:21;2.20;;;1.03;;
1725;SDS011;41776;48.260;8.928;2023-03-23T00:03:51;1.73;;;1.10;;
1725;SDS011;41776;48.260;8.928;2023-03-23T00:06:20;1.30;;;0.97;;
1725;SDS011;41776;48.260;8.928;2023-03-23T00:08:47;1.77;;;1.03;;
1725;SDS011;41776;48.260;8.928;2023-03-23T00:11:18;2.63;;;1.10;;
1725;SDS011;41776;48.260;8.928;2023-03-23T00:13:47;1.87;;;1.00;;
1725;SDS011;41776;48.260;8.928;2023-03-23T00:16:17;3.37;;;1.10;;
1725;SDS011;41776;48.260;8.928;2023-03-23T00:18:44;3.40;;;1.00;;
1725;SDS011;41776;48.260;8.928;2023-03-23T00:21:11;3.90;;;1.00;;
1725;SDS011;41776;48.260;8.928;2023-03-23T00:23:40;4.93;;;1.00;;
1725;SDS011;41776;48.260;8.928;2023-03-23T00:26:09;1.20;;;0.90;;
1725;SDS011;41776;48.260;8.928;2023-03-23T00:28:37;1.53;;;1.00;;
1725;SDS011;41776;48.260;8.928;2023-03-23T00:31:05;1.00;;;0.90;;
1725;SDS011;41776;48.260;8.928;2023-03-23T00:33:33;2.00;;;1.00;;
1725;SDS011;41776;48.260;8.928;2023-03-23T00:36:03;2.67;;;1.00;;
1725;SDS011;41776;48.260;8.928;2023-03-23T00:38:30;1.17;;;1.00;;
1725;SDS011;41776;48.260;8.928;2023-03-23T00:40:59;1.10;;;0.80;;
1725;SDS011;41776;48.260;8.928;2023-03-23T00:43:27;4.20;;;0.93;;
1725;SDS011;41776;48.260;8.928;2023-03-23T00:45:54;4.27;;;1.10;;
1725;SDS011;41776;48.260;8.928;2023-03-23T00:48:21;2.77;;;1.30;;
1725;SDS011;41776;48.260;8.928;2023-03-23T00:50:49;1.10;;;0.90;;
1725;SDS011;41776;48.260;8.928;2023-03-23T00:53:16;6.10;;;1.40;;
1725;SDS011;41776;48.260;8.928;2023-03-23T00:55:43;4.43;;;1.20;;
1725;SDS011;41776;48.260;8.928;2023-03-23T00:58:13;9.70;;;1.17;;
1725;SDS011;41776;48.260;8.928;2023-03-23T01:00:40;5.70;;;1.20;;
1725;SDS011;41776;48.260;8.928;2023-03-23T01:03:08;2.60;;;1.20;;
1725;SDS011;41776;48.260;8.928;2023-03-23T01:05:37;1.73;;;0.87;;
1725;SDS011;41776;48.260;8.928;2023-03-23T01:08:05;2.57;;;1.10;;
1725;SDS011;41776;48.260;8.928;2023-03-23T01:10:33;2.63;;;1.20;;
1725;SDS011;41776;48.260;8.928;2023-03-23T01:13:03;5.47;;;1.10;;
1725;SDS011;41776;48.260;8.928;2023-03-23T01:15:32;3.20;;;1.10;;
1725;SDS011;41776;48.260;8.928;2023-03-23T01:17:58;2.90;;;1.00;;
1725;SDS011;41776;48.260;8.928;2023-03-23T01:20:25;1.17;;;0.80;;
1725;SDS011;41776;48.260;8.928;2023-03-23T01:22:54;4.33;;;1.37;;
1725;SDS011;41776;48.260;8.928;2023-03-23T01:25:25;2.13;;;1.13;;
1725;SDS011;41776;48.260;8.928;2023-03-23T01:27:52;1.57;;;1.10;;
1725;SDS011;41776;48.260;8.928;2023-03-23T01:30:18;3.70;;;1.37;;
1725;SDS011;41776;48.260;8.928;2023-03-23T01:32:46;3.70;;;1.50;;
1725;SDS011;41776;48.260;8.928;2023-03-23T01:35:13;1.87;;;1.00;;
1725;SDS011;41776;48.260;8.928;2023-03-23T01:37:40;1.20;;;0.90;;
1725;SDS011;41776;48.260;8.928;2023-03-23T01:40:06;2.70;;;1.17;;
1725;SDS011;41776;48.260;8.928;2023-03-23T01:42:35;3.73;;;1.23;;
1725;SDS011;41776;48.260;8.928;2023-03-23T01:47:59;4.07;;;1.07;;
1725;SDS011;41776;48.260;8.928;2023-03-23T01:50:29;3.47;;;0.97;;
1725;SDS011;41776;48.260;8.928;2023-03-23T01:53:02;1.73;;;1.00;;
1725;SDS011;41776;48.260;8.928;2023-03-23T01:55:33;1.30;;;1.10;;
1725;SDS011;41776;48.260;8.928;2023-03-23T01:58:03;3.43;;;1.10;;
1725;SDS011;41776;48.260;8.928;2023-03-23T02:00:30;7.17;;;1.03;;
1725;SDS011;41776;48.260;8.928;2023-03-23T02:02:59;2.17;;;1.20;;
1725;SDS011;41776;48.260;8.928;2023-03-23T02:05:28;1.80;;;0.90;;
1725;SDS011;41776;48.260;8.928;2023-03-23T02:07:59;2.67;;;1.07;;
1725;SDS011;41776;48.260;8.928;2023-03-23T02:10:29;2.77;;;1.17;;
1725;SDS011;41776;48.260;8.928;2023-03-23T02:12:56;3.20;;;1.60;;
1725;SDS011;41776;48.260;8.928;2023-03-23T02:15:23;2.17;;;1.13;;
1725;SDS011;41776;48.260;8.928;2023-03-23T02:17:53;3.00;;;1.27;;
1725;SDS011;41776;48.260;8.928;2023-03-23T02:20:36;2.00;;;1.10;;
1725;SDS011;41776;48.260;8.928;2023-03-23T02:23:19;4.23;;;1.23;;
1725;SDS011;41776;48.260;8.928;2023-03-23T02:26:05;4.70;;;1.30;;
1725;SDS011;41776;48.260;8.928;2023-03-23T02:28:51;1.50;;;0.90;;
1725;SDS011;41776;48.260;8.928;2023-03-23T02:31:40;2.57;;;0.80;;
1725;SDS011;41776;48.260;8.928;2023-03-23T02:34:19;2.17;;;1.20;;
1725;SDS011;41776;48.260;8.928;2023-03-23T02:36:53;1.40;;;1.00;;
1725;SDS011;41776;48.260;8.928;2023-03-23T02:39:25;3.03;;;1.33;;
1725;SDS011;41776;48.260;8.928;2023-03-23T02:41:56;2.47;;;1.07;;
1725;SDS011;41776;48.260;8.928;2023-03-23T02:44:26;1.87;;;1.23;;
1725;SDS011;41776;48.260;8.928;2023-03-23T02:46:55;3.30;;;0.93;;
1725;SDS011;41776;48.260;8.928;2023-03-23T02:49:25;4.97;;;1.20;;
1725;SDS011;41776;48.260;8.928;2023-03-23T02:51:55;2.30;;;1.02;;
1725;SDS011;41776;48.260;8.928;2023-03-23T02:54:23;4.10;;;1.10;;
1725;SDS011;41776;48.260;8.928;2023-03-23T02:56:52;3.05;;;0.98;;
1725;SDS011;41776;48.260;8.928;2023-03-23T02:59:20;2.97;;;1.17;;
1725;SDS011;41776;48.260;8.928;2023-03-23T03:01:50;2.25;;;1.08;;
1725;SDS011;41776;48.260;8.928;2023-03-23T03:04:22;2.00;;;1.05;;
1725;SDS011;41776;48.260;8.928;2023-03-23T03:06:55;2.38;;;1.10;;
1725;SDS011;41776;48.260;8.928;2023-03-23T03:09:37;2.60;;;1.20;;
1725;SDS011;41776;48.260;8.928;2023-03-23T03:12:09;1.85;;;1.08;;
1725;SDS011;41776;48.260;8.928;2023-03-23T03:14:42;1.88;;;1.23;;
1725;SDS011;41776;48.260;8.928;2023-03-23T03:17:17;3.47;;;1.35;;
1725;SDS011;41776;48.260;8.928;2023-03-23T03:19:52;2.33;;;1.00;;
1725;SDS011;41776;48.260;8.928;2023-03-23T03:22:23;1.33;;;0.90;;
1725;SDS011;41776;48.260;8.928;2023-03-23T03:24:53;2.92;;;1.10;;
1725;SDS011;41776;48.260;8.928;2023-03-23T03:27:22;3.63;;;1.10;;
1725;SDS011;41776;48.260;8.928;2023-03-23T03:29:51;3.95;;;1.17;;
1725;SDS011;41776;48.260;8.928;2023-03-23T03:32:22;1.33;;;1.00;;
1725;SDS011;41776;48.260;8.928;2023-03-23T03:34:54;1.05;;;0.93;;
1725;SDS011;41776;48.260;8.928;2023-03-23T03:37:20;0.90;;;0.85;;
1725;SDS011;41776;48.260;8.928;2023-03-23T03:39:47;1.10;;;0.90;;
1725;SDS011;41776;48.260;8.928;2023-03-23T03:42:13;2.90;;;1.02;;
1725;SDS011;41776;48.260;8.928;2023-03-23T03:44:40;3.20;;;1.40;;
1725;SDS011;41776;48.260;8.928;2023-03-23T03:47:06;1.70;;;1.10;;
1725;SDS011;41776;48.260;8.928;2023-03-23T03:49:33;1.58;;;1.00;;
1725;SDS011;41776;48.260;8.928;2023-03-23T03:52:01;1.15;;;0.80;;
1725;SDS011;41776;48.260;8.928;2023-03-23T03:54:28;2.50;;;1.17;;
1725;SDS011;41776;48.260;8.928;2023-03-23T03:56:54;4.13;;;1.23;;
1725;SDS011;41776;48.260;8.928;2023-03-23T03:59:22;1.40;;;1.10;;
1725;SDS011;41776;48.260;8.928;2023-03-23T04:01:50;1.50;;;1.02;;
1725;SDS011;41776;48.260;8.928;2023-03-23T04:04:19;2.40;;;1.20;;
1725;SDS011;41776;48.260;8.928;2023-03-23T04:06:45;1.77;;;1.15;;
1725;SDS011;41776;48.260;8.928;2023-03-23T04:09:15;2.60;;;1.45;;
1725;SDS011;41776;48.260;8.928;2023-03-23T04:11:42;6.82;;;1.40;;
1725;SDS011;41776;48.260;8.928;2023-03-23T04:14:08;3.45;;;1.38;;
1725;SDS011;41776;48.260;8.928;2023-03-23T04:16:35;2.40;;;1.40;;
1725;SDS011;41776;48.260;8.928;2023-03-23T04:19:01;1.85;;;1.30;;
1725;SDS011;41776;48.260;8.928;2023-03-23T04:21:28;4.60;;;1.52;;
1725;SDS011;41776;48.260;8.928;2023-03-23T04:23:55;3.05;;;1.42;;
1725;SDS011;41776;48.260;8.928;2023-03-23T04:26:25;5.70;;;1.40;;
1725;SDS011;41776;48.260;8.928;2023-03-23T04:28:53;4.35;;;1.30;;
1725;SDS011;41776;48.260;8.928;2023-03-23T04:31:20;1.90;;;1.13;;
1725;SDS011;41776;48.260;8.928;2023-03-23T04:33:49;2.05;;;1.17;;
1725;SDS011;41776;48.260;8.928;2023-03-23T04:36:17;3.13;;;1.33;;
1725;SDS011;41776;48.260;8.928;2023-03-23T04:38:45;1.83;;;1.08;;
1725;SDS011;41776;48.260;8.928;2023-03-23T04:41:11;3.88;;;1.48;;
1725;SDS011;41776;48.260;8.928;2023-03-23T04:43:39;3.00;;;1.20;;
1725;SDS011;41776;48.260;8.928;2023-03-23T04:46:07;2.58;;;1.15;;
1725;SDS011;41776;48.260;8.928;2023-03-23T04:48:35;1.67;;;1.23;;
1725;SDS011;41776;48.260;8.928;2023-03-23T04:51:04;4.07;;;1.20;;
1725;SDS011;41776;48.260;8.928;2023-03-23T04:53:31;2.88;;;1.40;;
1725;SDS011;41776;48.260;8.928;2023-03-23T04:55:58;5.57;;;1.30;;
1725;SDS011;41776;48.260;8.928;2023-03-23T04:58:26;2.03;;;1.27;;
1725;SDS011;41776;48.260;8.928;2023-03-23T05:00:55;2.45;;;1.38;;
1725;SDS011;41776;48.260;8.928;2023-03-23T05:03:22;3.15;;;1.20;;
1725;SDS011;41776;48.260;8.928;2023-03-23T05:05:50;1.50;;;1.30;;
1725;SDS011;41776;48.260;8.928;2023-03-23T05:08:17;3.05;;;1.27;;
1725;SDS011;41776;48.260;8.928;2023-03-23T05:10:49;4.28;;;1.33;;
1725;SDS011;41776;48.260;8.928;2023-03-23T05:13:17;2.25;;;1.25;;
1725;SDS011;41776;48.260;8.928;2023-03-23T05:15:44;2.17;;;1.10;;
1725;SDS011;41776;48.260;8.928;2023-03-23T05:18:11;2.28;;;1.20;;
1725;SDS011;41776;48.260;8.928;2023-03-23T05:20:38;2.15;;;1.35;;
1725;SDS011;41776;48.260;8.928;2023-03-23T05:23:05;2.58;;;1.25;;
1725;SDS011;41776;48.260;8.928;2023-03-23T05:25:31;3.47;;;1.60;;
1725;SDS011;41776;48.260;8.928;2023-03-23T05:28:01;2.60;;;1.40;;
1725;SDS011;41776;48.260;8.928;2023-03-23T05:30:28;7.22;;;1.40;;
1725;SDS011;41776;48.260;8.928;2023-03-23T05:32:54;2.05;;;1.25;;
1725;SDS011;41776;48.260;8.928;2023-03-23T05:35:22;4.03;;;1.50;;
1725;SDS011;41776;48.260;8.928;2023-03-23T05:37:49;1.85;;;1.20;;
1725;SDS011;41776;48.260;8.928;2023-03-23T05:40:18;4.93;;;1.70;;
1725;SDS011;41776;48.260;8.928;2023-03-23T05:42:45;2.75;;;1.45;;
1725;SDS011;41776;48.260;8.928;2023-03-23T05:45:13;2.47;;;1.45;;
1725;SDS011;41776;48.260;8.928;2023-03-23T05:47:41;4.40;;;1.27;;
1725;SDS011;41776;48.260;8.928;2023-03-23T05:50:08;2.22;;;1.38;;
1725;SDS011;41776;48.260;8.928;2023-03-23T05:52:37;2.95;;;1.60;;
1725;SDS011;41776;48.260;8.928;2023-03-23T05:55:04;4.25;;;1.33;;
1725;SDS011;41776;48.260;8.928;2023-03-23T05:57:32;3.13;;;1.42;;
1725;SDS011;41776;48.260;8.928;2023-03-23T05:59:59;2.57;;;1.50;;
1725;SDS011;41776;48.260;8.928;2023-03-23T06:02:30;2.47;;;1.58;;
1725;SDS011;41776;48.260;8.928;2023-03-23T06:04:56;4.07;;;1.70;;
1725;SDS011;41776;48.260;8.928;2023-03-23T06:07:23;2.55;;;1.45;;
1725;SDS011;41776;48.260;8.928;2023-03-23T06:09:51;2.85;;;1.45;;
1725;SDS011;41776;48.260;8.928;2023-03-23T06:12:18;2.58;;;1.30;;
1725;SDS011;41776;48.260;8.928;2023-03-23T06:14:45;2.22;;;1.30;;
1725;SDS011;41776;48.260;8.928;2023-03-23T06:17:13;2.35;;;1.42;;
1725;SDS011;41776;48.260;8.928;2023-03-23T06:19:40;2.38;;;1.63;;
1725;SDS011;41776;48.260;8.928;2023-03-23T06:22:06;3.90;;;1.70;;
1725;SDS011;41776;48.260;8.928;2023-03-23T06:24:33;4.55;;;2.05;;
1725;SDS011;41776;48.260;8.928;2023-03-23T06:27:01;4.40;;;2.05;;
1725;SDS011;41776;48.260;8.928;2023-03-23T06:29:29;2.22;;;1.40;;
1725;SDS011;41776;48.260;8.928;2023-03-23T06:31:58;4.05;;;1.58;;
1725;SDS011;41776;48.260;8.928;2023-03-23T06:34:28;3.42;;;1.50;;
1725;SDS011;41776;48.260;8.928;2023-03-23T06:36:54;3.03;;;1.60;;
1725;SDS011;41776;48.260;8.928;2023-03-23T06:39:21;3.40;;;1.50;;
1725;SDS011;41776;48.260;8.928;2023-03-23T06:41:48;3.67;;;1.67;;
1725;SDS011;41776;48.260;8.928;2023-03-23T06:44:16;3.42;;;1.55;;
1725;SDS011;41776;48.260;8.928;2023-03-23T06:46:43;2.30;;;1.55;;
1725;SDS011;41776;48.260;8.928;2023-03-23T06:49:09;4.60;;;1.23;;
1725;SDS011;41776;48.260;8.928;2023-03-23T06:51:36;2.83;;;1.58;;
1725;SDS011;41776;48.260;8.928;2023-03-23T06:54:03;4.38;;;2.00;;
1725;SDS011;41776;48.260;8.928;2023-03-23T06:56:30;4.82;;;2.10;;
1725;SDS011;41776;48.260;8.928;2023-03-23T06:58:57;5.25;;;1.60;;
1725;SDS011;41776;48.260;8.928;2023-03-23T07:01:25;2.45;;;1.52;;
1725;SDS011;41776;48.260;8.928;2023-03-23T07:03:53;3.88;;;1.58;;
1725;SDS011;41776;48.260;8.928;2023-03-23T07:06:20;2.10;;;1.40;;
1725;SDS011;41776;48.260;8.928;2023-03-23T07:08:47;3.28;;;1.40;;
1725;SDS011;41776;48.260;8.928;2023-03-23T07:11:14;4.03;;;1.30;;
1725;SDS011;41776;48.260;8.928;2023-03-23T07:13:40;2.33;;;1.23;;
1725;SDS011;41776;48.260;8.928;2023-03-23T07:16:07;3.75;;;1.30;;
1725;SDS011;41776;48.260;8.928;2023-03-23T07:18:37;2.85;;;1.67;;
1725;SDS011;41776;48.260;8.928;2023-03-23T07:21:03;3.78;;;1.10;;
1725;SDS011;41776;48.260;8.928;2023-03-23T07:23:31;3.55;;;1.40;;
1725;SDS011;41776;48.260;8.928;2023-03-23T07:25:57;3.50;;;1.55;;
1725;SDS011;41776;48.260;8.928;2023-03-23T07:28:24;4.00;;;1.70;;
1725;SDS011;41776;48.260;8.928;2023-03-23T07:30:51;2.13;;;1.38;;
1725;SDS011;41776;48.260;8.928;2023-03-23T07:33:18;2.78;;;1.42;;
1725;SDS011;41776;48.260;8.928;2023-03-23T07:35:46;4.13;;;1.45;;
1725;SDS011;41776;48.260;8.928;2023-03-23T07:38:12;2.90;;;1.20;;
1725;SDS011;41776;48.260;8.928;2023-03-23T07:40:40;3.78;;;1.45;;
1725;SDS011;41776;48.260;8.928;2023-03-23T07:43:07;4.00;;;1.40;;
1725;SDS011;41776;48.260;8.928;2023-03-23T07:45:34;2.28;;;1.23;;
1725;SDS011;41776;48.260;8.928;2023-03-23T07:48:00;5.15;;;1.40;;
1725;SDS011;41776;48.260;8.928;2023-03-23T07:50:27;2.08;;;1.15;;
1725;SDS011;41776;48.260;8.928;2023-03-23T07:52:55;1.77;;;1.10;;
1725;SDS011;41776;48.260;8.928;2023-03-23T07:55:23;2.40;;;1.27;;
1725;SDS011;41776;48.260;8.928;2023-03-23T07:57:52;1.58;;;1.30;;
1725;SDS011;41776;48.260;8.928;2023-03-23T08:00:20;4.28;;;1.40;;
1725;SDS011;41776;48.260;8.928;2023-03-23T08:02:49;4.13;;;1.30;;
1725;SDS011;41776;48.260;8.928;2023-03-23T08:05:17;2.03;;;1.30;;
1725;SDS011;41776;48.260;8.928;2023-03-23T08:07:44;3.65;;;1.30;;
1725;SDS011;41776;48.260;8.928;2023-03-23T08:10:12;3.58;;;1.55;;
1725;SDS011;41776;48.260;8.928;2023-03-23T08:12:40;2.45;;;1.50;;
1725;SDS011;41776;48.260;8.928;2023-03-23T08:15:08;2.30;;;1.08;;
1725;SDS011;41776;48.260;8.928;2023-03-23T08:17:37;2.47;;;1.20;;
1725;SDS011;41776;48.260;8.928;2023-03-23T08:20:05;3.03;;;1.35;;
1725;SDS011;41776;48.260;8.928;2023-03-23T08:22:35;3.53;;;1.20;;
1725;SDS011;41776;48.260;8.928;2023-03-23T08:25:03;6.38;;;1.30;;
1725;SDS011;41776;48.260;8.928;2023-03-23T08:27:31;2.47;;;1.30;;
1725;SDS011;41776;48.260;8.928;2023-03-23T08:29:58;3.40;;;1.17;;
1725;SDS011;41776;48.260;8.928;2023-03-23T08:32:24;2.60;;;1.30;;
1725;SDS011;41776;48.260;8.928;2023-03-23T08:34:51;1.85;;;1.00;;
1725;SDS011;41776;48.260;8.928;2023-03-23T08:37:18;4.72;;;1.10;;
1725;SDS011;41776;48.260;8.928;2023-03-23T08:39:45;5.97;;;1.30;;
1725;SDS011;41776;48.260;8.928;2023-03-23T08:42:11;1.40;;;1.10;;
1725;SDS011;41776;48.260;8.928;2023-03-23T08:44:40;4.95;;;1.77;;
1725;SDS011;41776;48.260;8.928;2023-03-23T08:47:06;3.03;;;1.27;;
1725;SDS011;41776;48.260;8.928;2023-03-23T08:49:33;3.72;;;1.40;;
1725;SDS011;41776;48.260;8.928;2023-03-23T08:51:59;3.25;;;1.25;;
1725;SDS011;41776;48.260;8.928;2023-03-23T08:54:26;4.80;;;1.40;;
1725;SDS011;41776;48.260;8.928;2023-03-23T08:56:54;2.40;;;1.42;;
1725;SDS011;41776;48.260;8.928;2023-03-23T08:59:20;2.80;;;1.42;;
1725;SDS011;41776;48.260;8.928;2023-03-23T09:01:49;2.05;;;1.30;;
1725;SDS011;41776;48.260;8.928;2023-03-23T09:04:15;2.58;;;1.20;;
1725;SDS011;41776;48.260;8.928;2023-03-23T09:06:42;1.33;;;1.00;;
1725;SDS011;41776;48.260;8.928;2023-03-23T09:09:09;2.72;;;1.50;;
1725;SDS011;41776;48.260;8.928;2023-03-23T09:11:36;4.35;;;1.52;;
1725;SDS011;41776;48.260;8.928;2023-03-23T09:14:03;2.20;;;0.93;;
1725;SDS011;41776;48.260;8.928;2023-03-23T09:16:31;2.17;;;1.23;;
1725;SDS011;41776;48.260;8.928;2023-03-23T09:18:59;2.85;;;1.17;;
1725;SDS011;41776;48.260;8.928;2023-03-23T09:21:26;2.45;;;1.27;;
1725;SDS011;41776;48.260;8.928;2023-03-23T09:23:54;4.82;;;1.40;;
1725;SDS011;41776;48.260;8.928;2023-03-23T09:26:24;1.63;;;1.15;;
1725;SDS011;41776;48.260;8.928;2023-03-23T09:28:51;5.50;;;1.65;;
1725;SDS011;41776;48.260;8.928;2023-03-23T09:31:17;4.03;;;1.00;;
1725;SDS011;41776;48.260;8.928;2023-03-23T09:33:45;4.22;;;1.42;;
1725;SDS011;41776;48.260;8.928;2023-03-23T09:36:13;1.27;;;1.05;;
1725;SDS011;41776;48.260;8.928;2023-03-23T09:38:42;1.60;;;0.90;;
1725;SDS011;41776;48.260;8.928;2023-03-23T09:41:16;2.10;;;1.13;;
1725;SDS011;41776;48.260;8.928;2023-03-23T09:43:59;1.08;;;0.90;;
1725;SDS011;41776;48.260;8.928;2023-03-23T09:46:38;5.85;;;0.90;;
1725;SDS011;41776;48.260;8.928;2023-03-23T09:49:15;2.53;;;1.30;;
1725;SDS011;41776;48.260;8.928;2023-03-23T09:51:47;1.33;;;1.08;;
1725;SDS011;41776;48.260;8.928;2023-03-23T09:54:18;5.05;;;1.00;;
1725;SDS011;41776;48.260;8.928;2023-03-23T09:56:47;2.53;;;1.20;;
1725;SDS011;41776;48.260;8.928;2023-03-23T09:59:18;2.15;;;1.13;;
1725;SDS011;41776;48.260;8.928;2023-03-23T10:01:49;1.40;;;1.00;;
1725;SDS011;41776;48.260;8.928;2023-03-23T10:04:24;1.77;;;0.90;;
1725;SDS011;41776;48.260;8.928;2023-03-23T10:06:58;3.50;;;1.00;;
1725;SDS011;41776;48.260;8.928;2023-03-23T10:09:25;2.47;;;1.15;;
1725;SDS011;41776;48.260;8.928;2023-03-23T10:11:56;2.50;;;1.20;;
1725;SDS011;41776;48.260;8.928;2023-03-23T10:14:32;2.30;;;1.05;;
1725;SDS011;41776;48.260;8.928;2023-03-23T10:17:08;4.80;;;1.00;;
1725;SDS011;41776;48.260;8.928;2023-03-23T10:19:41;2.13;;;1.20;;
1725;SDS011;41776;48.260;8.928;2023-03-23T10:22:16;2.08;;;1.25;;
1725;SDS011;41776;48.260;8.928;2023-03-23T10:24:49;1.20;;;1.00;;
1725;SDS011;41776;48.260;8.928;2023-03-23T10:27:19;3.20;;;1.20;;
1725;SDS011;41776;48.260;8.928;2023-03-23T10:29:53;1.80;;;1.15;;
1725;SDS011;41776;48.260;8.928;2023-03-23T10:32:35;3.78;;;1.25;;
1725;SDS011;41776;48.260;8.928;2023-03-23T10:35:06;5.20;;;1.20;;
1725;SDS011;41776;48.260;8.928;2023-03-23T10:37:41;3.03;;;1.10;;
1725;SDS011;41776;48.260;8.928;2023-03-23T10:40:13;3.47;;;1.20;;
1725;SDS011;41776;48.260;8.928;2023-03-23T10:42:43;2.33;;;1.10;;
1725;SDS011;41776;48.260;8.928;2023-03-23T10:45:12;1.75;;;1.10;;
1725;SDS011;41776;48.260;8.928;2023-03-23T10:47:46;2.10;;;1.13;;
1725;SDS011;41776;48.260;8.928;2023-03-23T10:50:18;3.38;;;1.35;;
1725;SDS011;41776;48.260;8.928;2023-03-23T10:52:51;4.63;;;1.60;;
1725;SDS011;41776;48.260;8.928;2023-03-23T10:55:22;3.38;;;1.60;;
1725;SDS011;41776;48.260;8.928;2023-03-23T10:57:59;3.92;;;1.38;;
1725;SDS011;41776;48.260;8.928;2023-03-23T11:00:27;3.35;;;1.05;;
1725;SDS011;41776;48.260;8.928;2023-03-23T11:02:59;3.67;;;1.05;;
1725;SDS011;41776;48.260;8.928;2023-03-23T11:05:32;3.08;;;1.60;;
1725;SDS011;41776;48.260;8.928;2023-03-23T11:08:10;5.00;;;1.20;;
1725;SDS011;41776;48.260;8.928;2023-03-23T11:10:39;3.00;;;1.45;;
1725;SDS011;41776;48.260;8.928;2023-03-23T11:13:10;1.85;;;1.10;;
1725;SDS011;41776;48.260;8.928;2023-03-23T11:15:39;2.67;;;1.20;;
1725;SDS011;41776;48.260;8.928;2023-03-23T11:18:09;3.10;;;1.70;;
1725;SDS011;41776;48.260;8.928;2023-03-23T11:20:38;3.65;;;1.40;;
1725;SDS011;41776;48.260;8.928;2023-03-23T11:23:09;2.85;;;1.33;;
1725;SDS011;41776;48.260;8.928;2023-03-23T11:28:36;1.90;;;0.88;;
1725;SDS011;41776;48.260;8.928;2023-03-23T11:31:05;3.47;;;1.20;;
1725;SDS011;41776;48.260;8.928;2023-03-23T11:33:35;1.98;;;1.27;;
1725;SDS011;41776;48.260;8.928;2023-03-23T11:36:05;1.95;;;1.10;;
1725;SDS011;41776;48.260;8.928;2023-03-23T11:38:35;2.72;;;1.45;;
1725;SDS011;41776;48.260;8.928;2023-03-23T11:41:08;4.47;;;1.58;;
1725;SDS011;41776;48.260;8.928;2023-03-23T11:43:39;2.97;;;1.33;;
1725;SDS011;41776;48.260;8.928;2023-03-23T11:46:09;2.53;;;1.30;;
1725;SDS011;41776;48.260;8.928;2023-03-23T11:48:42;2.70;;;1.10;;
1725;SDS011;41776;48.260;8.928;2023-03-23T11:51:17;2.08;;;1.40;;
1725;SDS011;41776;48.260;8.928;2023-03-23T11:53:48;2.58;;;1.05;;
1725;SDS011;41776;48.260;8.928;2023-03-23T11:56:23;2.53;;;1.10;;
1725;SDS011;41776;48.260;8.928;2023-03-23T11:58:52;2.88;;;1.10;;
1725;SDS011;41776;48.260;8.928;2023-03-23T12:01:22;3.53;;;1.20;;
1725;SDS011;41776;48.260;8.928;2023-03-23T12:04:14;2.17;;;1.13;;
1725;SDS011;41776;48.260;8.928;2023-03-23T12:07:11;3.22;;;1.50;;
1725;SDS011;41776;48.260;8.928;2023-03-23T12:09:53;2.67;;;1.42;;
1725;SDS011;41776;48.260;8.928;2023-03-23T12:12:30;2.53;;;1.30;;
1725;SDS011;41776;48.260;8.928;2023-03-23T12:15:07;1.60;;;1.17;;
1725;SDS011;41776;48.260;8.928;2023-03-23T12:17:46;2.70;;;1.15;;
1725;SDS011;41776;48.260;8.928;2023-03-23T12:20:20;7.13;;;1.38;;
1725;SDS011;41776;48.260;8.928;2023-03-23T12:22:57;3.72;;;1.40;;
1725;SDS011;41776;48.260;8.928;2023-03-23T12:28:45;4.05;;;1.20;;
1725;SDS011;41776;48.260;8.928;2023-03-23T12:31:24;5.10;;;1.60;;
1725;SDS011;41776;48.260;8.928;2023-03-23T12:33:59;3.00;;;1.30;;
1725;SDS011;41776;48.260;8.928;2023-03-23T12:36:36;1.27;;;1.02;;
1725;SDS011;41776;48.260;8.928;2023-03-23T12:39:28;3.85;;;1.40;;
1725;SDS011;41776;48.260;8.928;2023-03-23T12:42:13;2.30;;;1.20;;
1725;SDS011;41776;48.260;8.928;2023-03-23T12:44:48;1.83;;;1.17;;
1725;SDS011;41776;48.260;8.928;2023-03-23T12:47:25;3.08;;;1.02;;
1725;SDS011;41776;48.260;8.928;2023-03-23T12:50:03;4.35;;;1.45;;
1725;SDS011;41776;48.260;8.928;2023-03-23T12:52:36;1.50;;;1.10;;
1725;SDS011;41776;48.260;8.928;2023-03-23T12:55:13;1.67;;;1.20;;
1725;SDS011;41776;48.260;8.928;2023-03-23T12:57:47;2.53;;;1.20;;
1725;SDS011;41776;48.260;8.928;2023-03-23T13:00:20;4.00;;;1.23;;
1725;SDS011;41776;48.260;8.928;2023-03-23T13:02:51;2.17;;;1.35;;
1725;SDS011;41776;48.260;8.928;2023-03-23T13:05:36;2.63;;;1.20;;
1725;SDS011;41776;48.260;8.928;2023-03-23T13:08:10;1.83;;;1.05;;
1725;SDS011;41776;48.260;8.928;2023-03-23T13:10:42;2.78;;;1.20;;
1725;SDS011;41776;48.260;8.928;2023-03-23T13:13:14;4.13;;;1.30;;
1725;SDS011;41776;48.260;8.928;2023-03-23T13:15:48;1.38;;;1.10;;
1725;SDS011;41776;48.260;8.928;2023-03-23T13:18:27;4.53;;;1.50;;
1725;SDS011;41776;48.260;8.928;2023-03-23T13:21:02;2.88;;;1.40;;
1725;SDS011;41776;48.260;8.928;2023-03-23T13:23:37;3.38;;;1.40;;
1725;SDS011;41776;48.260;8.928;2023-03-23T13:26:07;2.85;;;1.38;;
1725;SDS011;41776;48.260;8.928;2023-03-23T13:28:47;2.90;;;1.35;;
1725;SDS011;41776;48.260;8.928;2023-03-23T13:31:22;3.55;;;1.55;;
1725;SDS011;41776;48.260;8.928;2023-03-23T13:33:57;3.35;;;1.55;;
1725;SDS011;41776;48.260;8.928;2023-03-23T13:36:27;6.75;;;1.33;;
1725;SDS011;41776;48.260;8.928;2023-03-23T13:38:57;1.38;;;1.13;;
1725;SDS011;41776;48.260;8.928;2023-03-23T13:41:25;3.92;;;1.67;;
1725;SDS011;41776;48.260;8.928;2023-03-23T13:44:03;2.70;;;1.23;;
1725;SDS011;41776;48.260;8.928;2023-03-23T13:46:31;11.05;;;1.50;;
1725;SDS011;41776;48.260;8.928;2023-03-23T13:49:14;2.65;;;1.33;;
1725;SDS011;41776;48.260;8.928;2023-03-23T13:51:57;3.45;;;1.90;;
1725;SDS011;41776;48.260;8.928;2023-03-23T13:54:30;3.25;;;1.60;;
1725;SDS011;41776;48.260;8.928;2023-03-23T13:56:58;3.72;;;1.30;;
1725;SDS011;41776;48.260;8.928;2023-03-23T13:59:30;3.40;;;1.20;;
1725;SDS011;41776;48.260;8.928;2023-03-23T14:07:57;6.65;;;2.22;;
1725;SDS011;41776;48.260;8.928;2023-03-23T14:10:31;4.20;;;1.60;;
1725;SDS011;41776;48.260;8.928;2023-03-23T14:13:00;3.42;;;1.90;;
1725;SDS011;41776;48.260;8.928;2023-03-23T14:15:29;3.67;;;1.60;;
1725;SDS011;41776;48.260;8.928;2023-03-23T14:17:57;3.45;;;1.60;;
1725;SDS011;41776;48.260;8.928;2023-03-23T14:20:30;7.25;;;1.77;;
1725;SDS011;41776;48.260;8.928;2023-03-23T14:22:59;3.95;;;1.67;;
1725;SDS011;41776;48.260;8.928;2023-03-23T14:25:26;2.75;;;1.63;;
1725;SDS011;41776;48.260;8.928;2023-03-23T14:27:55;3.63;;;1.55;;
1725;SDS011;41776;48.260;8.928;2023-03-23T14:30:23;4.40;;;1.60;;
1725;SDS011;41776;48.260;8.928;2023-03-23T14:32:53;3.70;;;1.88;;
1725;SDS011;41776;48.260;8.928;2023-03-23T14:35:29;3.95;;;2.00;;
1725;SDS011;41776;48.260;8.928;2023-03-23T14:37:57;3.97;;;2.65;;
1725;SDS011;41776;48.260;8.928;2023-03-23T14:40:26;4.22;;;1.83;;
1725;SDS011;41776;48.260;8.928;2023-03-23T14:42:53;5.45;;;1.80;;
1725;SDS011;41776;48.260;8.928;2023-03-23T14:45:22;3.72;;;2.08;;
1725;SDS011;41776;48.260;8.928;2023-03-23T14:47:53;2.08;;;1.20;;
1725;SDS011;41776;48.260;8.928;2023-03-23T14:50:23;3.92;;;1.55;;
1725;SDS011;41776;48.260;8.928;2023-03-23T14:52:55;5.25;;;1.70;;
1725;SDS011;41776;48.260;8.928;2023-03-23T14:55:24;2.13;;;1.25;;
1725;SDS011;41776;48.260;8.928;2023-03-23T14:57:53;2.97;;;1.55;;
1725;SDS011;41776;48.260;8.928;2023-03-23T15:00:21;3.95;;;1.70;;
1725;SDS011;41776;48.260;8.928;2023-03-23T15:02:53;5.75;;;1.50;;
1725;SDS011;41776;48.260;8.928;2023-03-23T15:05:25;2.75;;;1.65;;
1725;SDS011;41776;48.260;8.928;2023-03-23T15:07:55;2.08;;;1.35;;
1725;SDS011;41776;48.260;8.928;2023-03-23T15:10:27;4.85;;;1.77;;
1725;SDS011;41776;48.260;8.928;2023-03-23T15:12:53;5.50;;;1.90;;
1725;SDS011;41776;48.260;8.928;2023-03-23T15:15:24;5.68;;;2.40;;
1725;SDS011;41776;48.260;8.928;2023-03-23T15:17:54;3.47;;;2.00;;
1725;SDS011;41776;48.260;8.928;2023-03-23T15:20:23;5.38;;;1.75;;
1725;SDS011;41776;48.260;8.928;2023-03-23T15:22:51;3.58;;;1.92;;
1725;SDS011;41776;48.260;8.928;2023-03-23T15:25:20;5.82;;;2.03;;
1725;SDS011;41776;48.260;8.928;2023-03-23T15:27:51;9.43;;;1.90;;
1725;SDS011;41776;48.260;8.928;2023-03-23T15:30:30;4.03;;;1.88;;
1725;SDS011;41776;48.260;8.928;2023-03-23T15:33:03;2.47;;;1.58;;